createdAt,value
2018-10-21T00:00:12.211Z,99.90
2018-10-21T00:02:41.398Z,99.90
2018-10-21T00:05:10.975Z,99.90
2018-10-21T00:07:39.863Z,99.90
2018-10-21T00:10:09.784Z,99.90
2018-10-21T00:12:38.442Z,99.90
2018-10-21T00:15:13.703Z,99.90
2018-10-21T00:17:42.158Z,99.90
2018-10-21T00:20:10.629Z,99.90
2018-10-21T00:22:39.083Z,99.90
2018-10-21T00:25:08.002Z,99.90
2018-10-21T00:27:36.451Z,99.90
2018-10-21T00:30:05.029Z,99.90
2018-10-21T00:32:52.211Z,99.90
2018-10-21T00:35:20.667Z,99.90
2018-10-21T00:37:49.114Z,99.90
2018-10-21T00:40:17.615Z,99.90
2018-10-21T00:42:46.054Z,99.90
2018-10-21T00:45:14.640Z,99.90
2018-10-21T00:47:43.069Z,99.90
2018-10-21T00:50:11.882Z,99.90
2018-10-21T00:52:40.311Z,99.90
2018-10-21T00:55:09.961Z,99.90
2018-10-21T00:57:38.431Z,99.90
2018-10-21T01:00:08.994Z,99.90
2018-10-21T01:02:37.594Z,99.90
2018-10-21T01:05:06.923Z,99.90
2018-10-21T01:07:35.380Z,99.90
2018-10-21T01:10:03.900Z,99.90
2018-10-21T01:12:32.347Z,99.90
2018-10-21T01:15:01.214Z,99.90
2018-10-21T01:17:29.623Z,99.90
2018-10-21T01:19:58.110Z,99.90
2018-10-21T01:22:26.803Z,99.90
2018-10-21T01:24:55.256Z,99.90
2018-10-21T01:27:23.704Z,99.90
2018-10-21T01:29:52.145Z,99.90
2018-10-21T01:32:20.572Z,99.90
2018-10-21T01:34:49.043Z,99.90
2018-10-21T01:37:18.145Z,99.90
2018-10-21T01:40:51.346Z,99.90
2018-10-21T01:43:21.359Z,99.90
2018-10-21T01:45:49.864Z,99.90
2018-10-21T01:48:19.535Z,99.90
2018-10-21T01:50:48.087Z,99.90
2018-10-21T01:53:17.527Z,99.90
2018-10-21T01:55:46.349Z,99.90
2018-10-21T01:58:14.808Z,99.90
2018-10-21T02:00:43.803Z,99.90
2018-10-21T02:03:12.650Z,99.90
2018-10-21T02:05:41.988Z,99.90
2018-10-21T02:08:10.506Z,99.90
2018-10-21T02:10:39.042Z,99.90
2018-10-21T02:13:07.859Z,99.90
2018-10-21T02:15:36.330Z,99.90
2018-10-21T02:18:04.983Z,99.90
2018-10-21T02:20:33.750Z,99.90
2018-10-21T02:23:02.209Z,99.90
2018-10-21T02:25:31.061Z,99.90
2018-10-21T02:27:59.525Z,99.90
2018-10-21T02:30:29.142Z,99.90
2018-10-21T02:32:58.629Z,99.90
2018-10-21T02:35:27.382Z,99.90
2018-10-21T02:37:56.826Z,99.90
2018-10-21T02:41:41.607Z,99.90
2018-10-21T02:44:11.667Z,99.90
2018-10-21T02:46:40.701Z,99.90
2018-10-21T02:49:09.849Z,99.90
2018-10-21T02:51:38.585Z,99.90
2018-10-21T02:54:07.743Z,99.90
2018-10-21T02:56:36.238Z,99.90
2018-10-21T02:59:05.198Z,99.90
2018-10-21T03:01:33.871Z,99.90
2018-10-21T03:04:02.371Z,99.90
2018-10-21T03:06:30.871Z,99.90
2018-10-21T03:08:59.469Z,99.90
2018-10-21T03:11:27.830Z,99.90
2018-10-21T03:13:56.314Z,99.90
2018-10-21T03:16:25.049Z,99.90
2018-10-21T03:18:53.561Z,99.90
2018-10-21T03:21:22.213Z,99.90
2018-10-21T03:23:50.901Z,99.90
2018-10-21T03:26:19.410Z,99.90
2018-10-21T03:28:47.895Z,99.90
2018-10-21T03:31:16.815Z,99.90
2018-10-21T03:33:45.320Z,99.90
2018-10-21T03:36:13.775Z,99.90
2018-10-21T03:38:42.322Z,99.90
2018-10-21T03:41:11.369Z,99.90
2018-10-21T03:43:39.917Z,99.90
2018-10-21T03:46:08.625Z,99.90
2018-10-21T03:48:37.070Z,99.90
2018-10-21T03:51:05.587Z,99.90
2018-10-21T03:53:34.054Z,99.90
2018-10-21T03:56:02.538Z,99.90
2018-10-21T03:58:31.056Z,99.90
2018-10-21T04:00:59.558Z,99.90
2018-10-21T04:03:28.079Z,99.90
2018-10-21T04:05:56.573Z,99.90
2018-10-21T04:08:25.311Z,99.90
2018-10-21T04:10:53.802Z,99.90
2018-10-21T04:13:22.283Z,99.90
2018-10-21T04:15:51.354Z,99.90
2018-10-21T04:18:19.872Z,99.90
2018-10-21T04:20:48.338Z,99.90
2018-10-21T04:23:17.114Z,99.90
2018-10-21T04:25:45.581Z,99.90
2018-10-21T04:28:14.121Z,99.90
2018-10-21T04:30:43.195Z,99.90
2018-10-21T04:33:44.648Z,99.90
2018-10-21T04:36:15.040Z,99.90
2018-10-21T04:38:54.935Z,99.90
2018-10-21T04:41:23.399Z,99.90
2018-10-21T04:43:51.887Z,99.90
2018-10-21T04:46:20.378Z,99.90
2018-10-21T04:48:48.885Z,99.90
2018-10-21T04:51:17.379Z,99.90
2018-10-21T04:53:45.879Z,99.90
2018-10-21T04:56:14.348Z,99.90
2018-10-21T04:58:43.071Z,99.90
2018-10-21T05:01:11.787Z,99.90
2018-10-21T05:03:40.546Z,99.90
2018-10-21T05:06:09.000Z,99.90
2018-10-21T05:08:37.494Z,99.90
2018-10-21T05:11:06.200Z,99.90
2018-10-21T05:13:34.678Z,99.90
2018-10-21T05:16:03.203Z,99.90
2018-10-21T05:18:31.661Z,99.90
2018-10-21T05:21:00.524Z,99.90
2018-10-21T05:23:29.010Z,99.90
2018-10-21T05:25:57.538Z,99.90
2018-10-21T05:28:26.060Z,99.90
2018-10-21T05:30:54.530Z,99.90
2018-10-21T05:33:22.998Z,99.90
2018-10-21T05:35:51.763Z,99.90
2018-10-21T05:38:20.249Z,99.90
2018-10-21T05:40:48.738Z,99.90
2018-10-21T05:43:17.811Z,99.90
2018-10-21T05:45:46.821Z,99.90
2018-10-21T05:48:15.651Z,99.90
2018-10-21T05:50:44.498Z,99.90
2018-10-21T05:53:12.964Z,99.90
2018-10-21T05:55:41.508Z,99.90
2018-10-21T05:58:09.990Z,99.90
2018-10-21T06:00:38.738Z,99.90
2018-10-21T06:03:07.532Z,99.90
2018-10-21T06:05:43.594Z,99.90
2018-10-21T06:08:12.093Z,99.90
2018-10-21T06:10:41.115Z,99.90
2018-10-21T06:13:10.386Z,99.90
2018-10-21T06:15:38.938Z,99.90
2018-10-21T06:18:10.091Z,99.90
2018-10-21T06:20:44.027Z,99.90
2018-10-21T06:23:12.875Z,99.90
2018-10-21T06:25:41.370Z,99.90
2018-10-21T06:28:09.847Z,99.90
2018-10-21T06:30:38.383Z,99.90
2018-10-21T06:33:06.885Z,99.90
2018-10-21T06:35:35.400Z,99.90
2018-10-21T06:38:03.923Z,99.90
2018-10-21T06:40:32.439Z,99.90
2018-10-21T06:43:01.020Z,99.90
2018-10-21T06:45:29.550Z,99.90
2018-10-21T06:47:58.595Z,99.90
2018-10-21T06:50:27.133Z,99.90
2018-10-21T06:52:56.060Z,99.90
2018-10-21T06:55:24.555Z,99.90
2018-10-21T06:57:53.209Z,99.90
2018-10-21T07:00:28.282Z,99.90
2018-10-21T07:02:56.797Z,99.90
2018-10-21T07:06:40.318Z,99.90
2018-10-21T07:09:09.128Z,99.90
2018-10-21T07:11:37.639Z,99.90
2018-10-21T07:14:06.179Z,99.90
2018-10-21T07:16:35.354Z,99.90
2018-10-21T07:19:03.775Z,99.90
2018-10-21T07:21:32.287Z,99.90
2018-10-21T07:24:00.776Z,99.90
2018-10-21T07:26:29.572Z,99.90
2018-10-21T07:28:58.059Z,99.90
2018-10-21T07:31:26.582Z,99.90
2018-10-21T07:33:55.077Z,99.90
2018-10-21T07:36:23.898Z,99.90
2018-10-21T07:38:52.330Z,99.90
2018-10-21T07:41:20.843Z,99.90
2018-10-21T07:43:49.435Z,99.90
2018-10-21T07:46:17.970Z,99.90
2018-10-21T07:48:46.434Z,99.90
2018-10-21T07:51:15.224Z,99.90
2018-10-21T07:53:43.997Z,99.90
2018-10-21T07:56:12.728Z,99.90
2018-10-21T07:58:41.259Z,99.90
2018-10-21T08:01:09.779Z,99.90
2018-10-21T08:03:38.279Z,99.90
2018-10-21T08:06:30.307Z,99.90
2018-10-21T08:08:59.213Z,99.90
2018-10-21T08:11:27.727Z,99.90
2018-10-21T08:13:56.206Z,99.90
2018-10-21T08:16:24.704Z,99.90
2018-10-21T08:18:53.798Z,99.90
2018-10-21T08:21:22.346Z,99.90
2018-10-21T08:23:50.753Z,99.90
2018-10-21T08:26:19.202Z,99.90
2018-10-21T08:28:48.291Z,99.90
2018-10-21T08:31:16.763Z,99.90
2018-10-21T08:33:45.246Z,99.90
2018-10-21T08:36:14.011Z,99.90
2018-10-21T08:38:42.783Z,99.90
2018-10-21T08:41:11.252Z,99.90
2018-10-21T08:43:39.748Z,99.90
2018-10-21T08:46:08.629Z,99.90
2018-10-21T08:48:37.055Z,99.90
2018-10-21T08:51:05.575Z,99.90
2018-10-21T08:53:34.048Z,99.90
2018-10-21T08:56:02.590Z,99.90
2018-10-21T08:58:31.036Z,99.90
2018-10-21T09:00:59.566Z,99.90
2018-10-21T09:03:28.347Z,99.90
2018-10-21T09:05:57.491Z,99.90
2018-10-21T09:08:25.981Z,99.90
2018-10-21T09:10:57.425Z,99.90
2018-10-21T09:13:27.441Z,99.90
2018-10-21T09:15:58.342Z,99.90
2018-10-21T09:18:26.809Z,99.90
2018-10-21T09:20:55.369Z,99.90
2018-10-21T09:23:23.843Z,99.90
2018-10-21T09:25:52.399Z,99.90
2018-10-21T09:28:20.884Z,99.90
2018-10-21T09:30:49.669Z,99.90
2018-10-21T09:33:18.217Z,99.90
2018-10-21T09:35:47.340Z,99.90
2018-10-21T09:38:16.639Z,99.90
2018-10-21T09:40:45.155Z,99.90
2018-10-21T09:43:13.713Z,99.90
2018-10-21T09:45:42.195Z,99.90
2018-10-21T09:48:10.681Z,99.90
2018-10-21T09:50:39.235Z,99.90
2018-10-21T09:53:07.796Z,99.90
2018-10-21T09:55:36.336Z,99.90
2018-10-21T09:58:05.014Z,99.90
2018-10-21T10:00:38.712Z,99.90
2018-10-21T10:03:08.698Z,99.90
2018-10-21T10:05:37.534Z,99.90
2018-10-21T10:08:06.062Z,99.90
2018-10-21T10:10:34.594Z,99.90
2018-10-21T10:13:03.142Z,99.90
2018-10-21T10:15:31.879Z,99.90
2018-10-21T10:18:00.391Z,99.90
2018-10-21T10:20:28.916Z,99.90
2018-10-21T10:22:57.440Z,99.90
2018-10-21T10:25:26.266Z,99.90
2018-10-21T10:27:54.855Z,99.90
2018-10-21T10:30:23.424Z,99.90
2018-10-21T10:32:52.127Z,99.90
2018-10-21T10:35:21.131Z,99.90
2018-10-21T10:37:49.703Z,99.90
2018-10-21T10:40:18.287Z,99.90
2018-10-21T10:42:46.740Z,99.90
2018-10-21T10:45:15.570Z,99.90
2018-10-21T10:47:44.353Z,99.90
2018-10-21T10:50:12.838Z,99.90
2018-10-21T10:52:41.390Z,99.90
2018-10-21T10:55:10.243Z,99.90
2018-10-21T10:57:38.782Z,99.90
2018-10-21T11:00:09.235Z,99.90
2018-10-21T11:02:37.698Z,99.60
2018-10-21T11:05:06.816Z,99.90
2018-10-21T11:07:35.403Z,99.50
2018-10-21T11:10:04.042Z,99.10
2018-10-21T11:12:32.466Z,99.20
2018-10-21T11:15:01.006Z,98.60
2018-10-21T11:17:29.775Z,99.90
2018-10-21T11:19:58.643Z,99.60
2018-10-21T11:22:27.538Z,99.50
2018-10-21T11:24:56.288Z,99.10
2018-10-21T11:27:24.751Z,99.40
2018-10-21T11:29:53.366Z,98.60
2018-10-21T11:32:21.879Z,98.00
2018-10-21T11:34:50.431Z,98.40
2018-10-21T11:37:19.355Z,98.20
2018-10-21T11:39:47.823Z,98.90
2018-10-21T11:42:16.363Z,98.90
2018-10-21T11:44:44.910Z,97.40
2018-10-21T11:47:13.442Z,97.90
2018-10-21T11:49:42.231Z,97.80
2018-10-21T11:52:10.898Z,97.20
2018-10-21T11:54:39.314Z,96.80
2018-10-21T11:57:07.939Z,96.80
2018-10-21T11:59:36.401Z,96.40
2018-10-21T12:02:05.067Z,96.10
2018-10-21T12:04:33.563Z,95.80
2018-10-21T12:07:02.464Z,95.00
2018-10-21T12:09:31.211Z,94.70
2018-10-21T12:11:59.693Z,94.70
2018-10-21T12:14:28.563Z,94.20
2018-10-21T12:16:57.053Z,94.50
2018-10-21T12:19:26.077Z,95.40
2018-10-21T12:21:54.621Z,94.50
2018-10-21T12:24:23.423Z,95.20
2018-10-21T12:26:52.198Z,95.50
2018-10-21T12:29:20.805Z,94.60
2018-10-21T12:31:49.422Z,94.80
2018-10-21T12:34:18.023Z,93.90
2018-10-21T12:36:46.478Z,93.70
2018-10-21T12:39:14.999Z,94.30
2018-10-21T12:41:43.531Z,94.10
2018-10-21T12:44:12.299Z,94.60
2018-10-21T12:46:41.163Z,95.50
2018-10-21T12:49:09.759Z,95.10
2018-10-21T12:51:38.339Z,94.90
2018-10-21T12:54:06.972Z,94.30
2018-10-21T12:56:35.363Z,94.00
2018-10-21T12:59:03.818Z,93.90
2018-10-21T13:01:32.326Z,94.10
2018-10-21T13:04:01.378Z,94.00
2018-10-21T13:06:29.894Z,93.00
2018-10-21T13:08:58.594Z,92.90
2018-10-21T13:11:27.088Z,93.30
2018-10-21T13:13:55.520Z,93.20
2018-10-21T13:16:24.027Z,93.10
2018-10-21T13:18:52.473Z,93.40
2018-10-21T13:21:20.982Z,93.60
2018-10-21T13:23:49.757Z,93.80
2018-10-21T13:26:18.244Z,93.90
2018-10-21T13:28:47.191Z,92.90
2018-10-21T13:31:15.712Z,93.70
2018-10-21T13:33:44.390Z,93.70
2018-10-21T13:36:12.902Z,93.40
2018-10-21T13:38:42.081Z,93.30
2018-10-21T13:41:10.615Z,92.60
2018-10-21T13:43:39.079Z,93.10
2018-10-21T13:46:07.639Z,94.00
2018-10-21T13:48:36.044Z,94.20
2018-10-21T13:51:05.186Z,93.40
2018-10-21T13:53:34.354Z,92.80
2018-10-21T13:56:02.791Z,93.20
2018-10-21T13:58:31.748Z,93.30
2018-10-21T14:01:00.850Z,93.40
2018-10-21T14:03:29.379Z,93.50
2018-10-21T14:05:58.106Z,93.40
2018-10-21T14:08:26.652Z,93.80
2018-10-21T14:10:55.346Z,94.10
2018-10-21T14:13:23.828Z,94.00
2018-10-21T14:15:52.408Z,93.90
2018-10-21T14:18:21.222Z,94.00
2018-10-21T14:20:49.942Z,94.40
2018-10-21T14:23:18.468Z,94.70
2018-10-21T14:25:46.988Z,95.40
2018-10-21T14:28:15.410Z,95.40
2018-10-21T14:30:43.877Z,94.50
2018-10-21T14:33:12.400Z,94.70
2018-10-21T14:35:40.822Z,95.50
2018-10-21T14:38:09.381Z,94.70
2018-10-21T14:40:38.080Z,95.10
2018-10-21T14:43:07.459Z,95.00
2018-10-21T14:45:35.950Z,95.00
2018-10-21T14:48:05.549Z,95.20
2018-10-21T14:50:33.987Z,95.00
2018-10-21T14:53:02.582Z,94.90
2018-10-21T14:55:31.359Z,94.90
2018-10-21T14:58:00.061Z,95.30
2018-10-21T15:00:28.944Z,95.20
2018-10-21T15:02:57.377Z,94.80
2018-10-21T15:05:25.863Z,94.60
2018-10-21T15:07:54.380Z,95.20
2018-10-21T15:10:22.894Z,96.10
2018-10-21T15:12:51.392Z,96.60
2018-10-21T15:15:20.416Z,95.40
2018-10-21T15:17:49.178Z,95.80
2018-10-21T15:20:17.928Z,95.60
2018-10-21T15:22:46.475Z,95.40
2018-10-21T15:25:15.809Z,97.40
2018-10-21T15:27:44.303Z,95.90
2018-10-21T15:30:13.083Z,96.20
2018-10-21T15:32:41.825Z,95.90
2018-10-21T15:35:10.452Z,95.60
2018-10-21T15:37:40.035Z,95.60
2018-10-21T15:40:09.912Z,95.60
2018-10-21T15:42:38.485Z,95.50
2018-10-21T15:45:08.551Z,95.50
2018-10-21T15:47:37.104Z,95.70
2018-10-21T15:50:05.836Z,95.50
2018-10-21T15:52:34.262Z,95.50
2018-10-21T15:55:02.759Z,96.20
2018-10-21T15:57:31.206Z,96.20
2018-10-21T15:59:59.734Z,96.80
2018-10-21T16:02:28.237Z,97.00
2018-10-21T16:04:56.780Z,97.00
2018-10-21T16:07:25.384Z,96.40
2018-10-21T16:09:53.905Z,96.70
2018-10-21T16:12:22.439Z,97.10
2018-10-21T16:14:50.981Z,97.40
2018-10-21T16:17:20.144Z,97.70
2018-10-21T16:19:48.963Z,97.70
2018-10-21T16:22:19.856Z,98.00
2018-10-21T16:24:48.312Z,98.00
2018-10-21T16:27:16.810Z,98.60
2018-10-21T16:29:45.299Z,99.10
2018-10-21T16:32:14.369Z,99.30
2018-10-21T16:34:43.141Z,99.80
2018-10-21T16:37:11.615Z,99.90
2018-10-21T16:39:40.391Z,99.90
2018-10-21T16:42:09.067Z,99.90
2018-10-21T16:44:37.607Z,99.90
2018-10-21T16:47:06.410Z,99.90
2018-10-21T16:49:34.886Z,99.90
2018-10-21T16:52:03.336Z,99.90
2018-10-21T16:54:32.161Z,99.90
2018-10-21T16:57:00.666Z,99.90
2018-10-21T16:59:29.431Z,99.90
2018-10-21T17:01:57.930Z,99.90
2018-10-21T17:04:26.711Z,99.90
2018-10-21T17:06:55.244Z,99.90
2018-10-21T17:09:24.387Z,99.90
2018-10-21T17:11:53.707Z,99.90
2018-10-21T17:14:22.158Z,99.90
2018-10-21T17:16:50.665Z,99.90
2018-10-21T17:19:19.124Z,99.90
2018-10-21T17:21:47.634Z,99.90
2018-10-21T17:24:16.141Z,99.90
2018-10-21T17:26:44.895Z,99.90
2018-10-21T17:29:13.387Z,99.90
2018-10-21T17:31:41.860Z,99.90
2018-10-21T17:34:10.531Z,99.90
2018-10-21T17:36:38.983Z,99.90
2018-10-21T17:39:13.176Z,99.90
2018-10-21T17:41:41.639Z,99.90
2018-10-21T17:44:10.632Z,99.90
2018-10-21T17:46:39.212Z,99.90
2018-10-21T17:49:07.783Z,99.90
2018-10-21T17:51:36.614Z,99.90
2018-10-21T17:54:05.847Z,99.90
2018-10-21T17:56:38.490Z,99.90
2018-10-21T17:59:07.017Z,99.90
2018-10-21T18:01:35.861Z,99.90
2018-10-21T18:04:04.482Z,99.90
2018-10-21T18:06:32.898Z,99.90
2018-10-21T18:09:01.372Z,99.90
2018-10-21T18:11:30.473Z,99.90
2018-10-21T18:13:59.317Z,99.90
2018-10-21T18:16:27.755Z,99.90
2018-10-21T18:18:57.136Z,99.90
2018-10-21T18:21:25.892Z,99.90
2018-10-21T18:23:54.660Z,99.90
2018-10-21T18:26:23.291Z,99.90
2018-10-21T18:28:52.347Z,99.90
2018-10-21T18:31:20.831Z,99.90
2018-10-21T18:33:49.276Z,99.90
2018-10-21T18:36:18.023Z,99.90
2018-10-21T18:38:46.732Z,99.90
2018-10-21T18:41:15.716Z,99.90
2018-10-21T18:43:44.555Z,99.90
2018-10-21T18:46:13.428Z,99.90
2018-10-21T18:48:42.174Z,99.90
2018-10-21T18:51:10.614Z,99.90
2018-10-21T18:53:39.691Z,99.90
2018-10-21T18:56:08.462Z,99.90
2018-10-21T18:58:41.125Z,99.90
2018-10-21T19:01:09.719Z,99.90
2018-10-21T19:03:38.158Z,99.90
2018-10-21T19:06:06.698Z,99.90
2018-10-21T19:08:35.156Z,99.90
2018-10-21T19:11:06.735Z,99.90
2018-10-21T19:13:35.501Z,99.90
2018-10-21T19:16:04.079Z,99.90
2018-10-21T19:18:32.771Z,99.90
2018-10-21T19:21:01.308Z,99.90
2018-10-21T19:23:30.254Z,99.90
2018-10-21T19:25:58.703Z,99.90
2018-10-21T19:28:27.866Z,99.90
2018-10-21T19:30:56.391Z,99.90
2018-10-21T19:33:26.711Z,99.90
2018-10-21T19:35:55.719Z,99.90
2018-10-21T19:38:24.247Z,99.90
2018-10-21T19:40:53.029Z,99.90
2018-10-21T19:43:21.596Z,99.90
2018-10-21T19:45:50.328Z,99.90
2018-10-21T19:48:18.824Z,99.90
2018-10-21T19:50:47.684Z,99.90
2018-10-21T19:53:16.181Z,99.90
2018-10-21T19:55:44.729Z,99.90
2018-10-21T19:58:13.240Z,99.90
2018-10-21T20:00:41.706Z,99.90
2018-10-21T20:03:10.203Z,99.90
2018-10-21T20:05:38.725Z,99.90
2018-10-21T20:08:07.210Z,99.90
2018-10-21T20:10:35.690Z,99.90
2018-10-21T20:13:04.335Z,99.90
2018-10-21T20:15:33.341Z,99.90
2018-10-21T20:18:02.196Z,99.90
2018-10-21T20:20:31.295Z,99.90
2018-10-21T20:23:00.028Z,99.90
2018-10-21T20:25:28.746Z,99.90
2018-10-21T20:27:57.557Z,99.90
2018-10-21T20:30:26.022Z,99.90
2018-10-21T20:32:54.718Z,99.90
2018-10-21T20:35:23.072Z,99.90
2018-10-21T20:37:51.567Z,99.90
2018-10-21T20:40:20.329Z,99.90
2018-10-21T20:42:49.147Z,99.90
2018-10-21T20:45:17.942Z,99.90
2018-10-21T20:47:46.418Z,99.90
2018-10-21T20:50:14.928Z,99.90
2018-10-21T20:52:43.419Z,99.90
2018-10-21T20:55:12.189Z,99.90
2018-10-21T20:57:40.690Z,99.90
2018-10-21T21:00:09.301Z,99.90
2018-10-21T21:02:37.744Z,99.90
2018-10-21T21:05:08.306Z,99.90
2018-10-21T21:07:37.129Z,99.90
2018-10-21T21:10:07.782Z,99.90
2018-10-21T21:12:36.206Z,99.90
2018-10-21T21:15:04.935Z,99.90
2018-10-21T21:17:33.407Z,99.90
2018-10-21T21:20:01.940Z,99.90
2018-10-21T21:22:30.856Z,99.90
2018-10-21T21:24:59.598Z,99.90
2018-10-21T21:27:28.102Z,99.90
2018-10-21T21:29:56.934Z,99.90
2018-10-21T21:32:25.350Z,99.90
2018-10-21T21:34:53.868Z,99.90
2018-10-21T21:37:22.566Z,99.90
2018-10-21T21:39:51.073Z,99.90
2018-10-21T21:42:20.103Z,99.90
2018-10-21T21:44:48.590Z,99.90
2018-10-21T21:47:17.043Z,99.90
2018-10-21T21:49:45.819Z,99.90
2018-10-21T21:52:14.609Z,99.90
2018-10-21T21:54:43.335Z,99.90
2018-10-21T21:57:11.784Z,99.90
2018-10-21T21:59:40.295Z,99.90
2018-10-21T22:02:09.052Z,99.90
2018-10-21T22:04:37.521Z,99.90
2018-10-21T22:07:06.583Z,99.90
2018-10-21T22:09:35.153Z,99.90
2018-10-21T22:12:03.900Z,99.90
2018-10-21T22:14:32.881Z,99.90
2018-10-21T22:17:01.386Z,99.90
2018-10-21T22:19:30.183Z,99.90
2018-10-21T22:21:58.951Z,99.90
2018-10-21T22:24:27.418Z,99.90
2018-10-21T22:26:56.167Z,99.90
2018-10-21T22:29:24.698Z,99.90
2018-10-21T22:31:53.483Z,99.90
2018-10-21T22:34:21.975Z,99.90
2018-10-21T22:36:50.499Z,99.90
2018-10-21T22:39:18.977Z,99.90
2018-10-21T22:41:47.484Z,99.90
2018-10-21T22:44:15.954Z,99.90
2018-10-21T22:46:44.845Z,99.90
2018-10-21T22:49:13.266Z,99.90
2018-10-21T22:51:41.794Z,99.90
2018-10-21T22:54:10.344Z,99.90
2018-10-21T22:56:39.150Z,99.90
2018-10-21T22:59:07.986Z,99.90
2018-10-21T23:01:36.501Z,99.90
2018-10-21T23:04:05.166Z,99.90
2018-10-21T23:06:33.635Z,99.90
2018-10-21T23:09:02.458Z,99.90
2018-10-21T23:11:31.268Z,99.90
2018-10-21T23:14:00.580Z,99.90
2018-10-21T23:16:29.211Z,99.90
2018-10-21T23:19:10.467Z,99.90
2018-10-21T23:21:39.272Z,99.90
2018-10-21T23:24:07.855Z,99.90
2018-10-21T23:26:36.342Z,99.90
2018-10-21T23:29:04.967Z,99.90
2018-10-21T23:31:33.770Z,99.90
2018-10-21T23:34:02.291Z,99.90
2018-10-21T23:36:31.071Z,99.90
2018-10-21T23:38:59.541Z,99.90
2018-10-21T23:41:28.644Z,99.90
2018-10-21T23:43:57.127Z,99.90
2018-10-21T23:46:26.142Z,99.90
2018-10-21T23:48:54.602Z,99.90
2018-10-21T23:51:23.085Z,99.90
2018-10-21T23:53:51.536Z,99.90
2018-10-21T23:56:20.211Z,99.90
2018-10-21T23:58:48.680Z,99.90
